createdAt,value
2022-12-28T00:04:54.000Z,97390
2022-12-28T00:09:54.000Z,97374
2022-12-28T00:14:54.000Z,97371
2022-12-28T00:19:54.000Z,97377
2022-12-28T00:24:54.000Z,97364
2022-12-28T00:29:54.000Z,97363
2022-12-28T00:34:54.000Z,97357
2022-12-28T00:39:54.000Z,97355
2022-12-28T00:44:54.000Z,97347
2022-12-28T00:49:54.000Z,97328
2022-12-28T00:54:54.000Z,97329
2022-12-28T00:59:54.000Z,97332
2022-12-28T01:04:54.000Z,97333
2022-12-28T01:09:54.000Z,97347
2022-12-28T01:14:54.000Z,97345
2022-12-28T01:19:54.000Z,97343
2022-12-28T01:24:54.000Z,97333
2022-12-28T01:29:54.000Z,97339
2022-12-28T01:34:54.000Z,97352
2022-12-28T01:39:54.000Z,97339
2022-12-28T01:44:54.000Z,97329
2022-12-28T01:49:54.000Z,97330
2022-12-28T01:54:54.000Z,97330
2022-12-28T01:59:54.000Z,97306
2022-12-28T02:04:54.000Z,97310
2022-12-28T02:09:54.000Z,97289
2022-12-28T02:14:54.000Z,97280
2022-12-28T02:19:54.000Z,97289
2022-12-28T02:24:54.000Z,97280
2022-12-28T02:29:54.000Z,97285
2022-12-28T02:34:54.000Z,97264
2022-12-28T02:39:54.000Z,97288
2022-12-28T02:44:54.000Z,97276
2022-12-28T02:49:54.000Z,97271
2022-12-28T02:54:54.000Z,97252
2022-12-28T02:59:54.000Z,97260
2022-12-28T03:04:54.000Z,97267
2022-12-28T03:09:54.000Z,97261
2022-12-28T03:14:54.000Z,97250
2022-12-28T03:19:54.000Z,97248
2022-12-28T03:24:54.000Z,97242
2022-12-28T03:29:54.000Z,97227
2022-12-28T03:34:54.000Z,97239
2022-12-28T03:39:54.000Z,97244
2022-12-28T03:44:54.000Z,97232
2022-12-28T03:49:54.000Z,97218
2022-12-28T03:54:54.000Z,97211
2022-12-28T03:59:54.000Z,97214
2022-12-28T04:04:54.000Z,97204
2022-12-28T04:09:54.000Z,97203
2022-12-28T04:14:54.000Z,97208
2022-12-28T04:19:54.000Z,97209
2022-12-28T04:24:54.000Z,97197
2022-12-28T04:29:54.000Z,97197
2022-12-28T04:34:54.000Z,97201
2022-12-28T04:39:54.000Z,97183
2022-12-28T04:44:54.000Z,97189
2022-12-28T04:49:54.000Z,97182
2022-12-28T04:54:54.000Z,97188
2022-12-28T04:59:54.000Z,97203
2022-12-28T05:04:54.000Z,97183
2022-12-28T05:09:54.000Z,97185
2022-12-28T05:14:54.000Z,97188
2022-12-28T05:19:54.000Z,97180
2022-12-28T05:24:54.000Z,97196
2022-12-28T05:29:54.000Z,97174
2022-12-28T05:34:54.000Z,97176
2022-12-28T05:39:54.000Z,97185
2022-12-28T05:44:54.000Z,97178
2022-12-28T05:49:54.000Z,97182
2022-12-28T05:54:54.000Z,97178
2022-12-28T05:59:54.000Z,97177
2022-12-28T06:04:54.000Z,97173
2022-12-28T06:09:54.000Z,97168
2022-12-28T06:14:54.000Z,97167
2022-12-28T06:19:54.000Z,97157
2022-12-28T06:24:54.000Z,97162
2022-12-28T06:29:54.000Z,97156
2022-12-28T06:34:54.000Z,97164
2022-12-28T06:39:54.000Z,97150
2022-12-28T06:44:54.000Z,97142
2022-12-28T06:49:54.000Z,97134
2022-12-28T06:54:54.000Z,97141
2022-12-28T06:59:54.000Z,97148
2022-12-28T07:04:54.000Z,97139
2022-12-28T07:09:54.000Z,97129
2022-12-28T07:15:09.000Z,97135
2022-12-28T07:19:54.000Z,97142
2022-12-28T07:24:54.000Z,97137
2022-12-28T07:29:54.000Z,97141
2022-12-28T07:34:54.000Z,97122
2022-12-28T07:39:54.000Z,97119
2022-12-28T07:44:54.000Z,97116
2022-12-28T07:49:54.000Z,97113
2022-12-28T07:54:54.000Z,97114
2022-12-28T07:59:54.000Z,97119
2022-12-28T08:04:54.000Z,97120
2022-12-28T08:09:54.000Z,97110
2022-12-28T08:14:54.000Z,97116
2022-12-28T08:19:54.000Z,97109
2022-12-28T08:24:54.000Z,97105
2022-12-28T08:29:54.000Z,97097
2022-12-28T08:34:54.000Z,97100
2022-12-28T08:39:54.000Z,97101
2022-12-28T08:44:54.000Z,97104
2022-12-28T08:49:54.000Z,97106
2022-12-28T08:54:54.000Z,97104
2022-12-28T08:59:54.000Z,97108
2022-12-28T09:04:54.000Z,97094
2022-12-28T09:09:54.000Z,97089
2022-12-28T09:14:54.000Z,97087
2022-12-28T09:19:54.000Z,97079
2022-12-28T09:25:09.000Z,97079
2022-12-28T09:29:54.000Z,97080
2022-12-28T09:34:54.000Z,97072
2022-12-28T09:39:54.000Z,97084
2022-12-28T09:44:54.000Z,97068
2022-12-28T09:49:54.000Z,97053
2022-12-28T09:54:54.000Z,97051
2022-12-28T09:59:54.000Z,97046
2022-12-28T10:04:54.000Z,97048
2022-12-28T10:09:54.000Z,97041
2022-12-28T10:14:54.000Z,97037
2022-12-28T10:19:54.000Z,97036
2022-12-28T10:24:54.000Z,97028
2022-12-28T10:29:54.000Z,97018
2022-12-28T10:34:54.000Z,97014
2022-12-28T10:39:54.000Z,97008
2022-12-28T10:44:54.000Z,96998
2022-12-28T10:49:54.000Z,96999
2022-12-28T10:54:54.000Z,96992
2022-12-28T10:59:54.000Z,96987
2022-12-28T11:04:54.000Z,96988
2022-12-28T11:09:54.000Z,96963
2022-12-28T11:14:54.000Z,96960
2022-12-28T11:19:54.000Z,96949
2022-12-28T11:24:54.000Z,96939
2022-12-28T11:29:54.000Z,96935
2022-12-28T11:34:54.000Z,96921
2022-12-28T11:39:54.000Z,96905
2022-12-28T11:44:54.000Z,96907
2022-12-28T11:50:09.000Z,96916
2022-12-28T11:54:54.000Z,96907
2022-12-28T11:59:54.000Z,96894
2022-12-28T12:04:54.000Z,96885
2022-12-28T12:09:54.000Z,96876
2022-12-28T12:14:54.000Z,96875
2022-12-28T12:19:54.000Z,96846
2022-12-28T12:24:54.000Z,96845
2022-12-28T12:29:54.000Z,96834
2022-12-28T12:34:54.000Z,96827
2022-12-28T12:39:54.000Z,96815
2022-12-28T12:44:54.000Z,96811
2022-12-28T12:49:54.000Z,96803
2022-12-28T12:55:09.000Z,96799
2022-12-28T12:59:54.000Z,96797
2022-12-28T13:04:54.000Z,96789
2022-12-28T13:09:54.000Z,96790
2022-12-28T13:14:54.000Z,96782
2022-12-28T13:19:54.000Z,96768
2022-12-28T13:24:54.000Z,96773
2022-12-28T13:29:54.000Z,96756
2022-12-28T13:34:54.000Z,96766
2022-12-28T13:39:54.000Z,96745
2022-12-28T13:44:54.000Z,96746
2022-12-28T13:49:54.000Z,96736
2022-12-28T13:54:54.000Z,96733
2022-12-28T13:59:54.000Z,96721
2022-12-28T14:04:54.000Z,96722
2022-12-28T14:09:54.000Z,96706
2022-12-28T14:14:54.000Z,96711
2022-12-28T14:19:54.000Z,96695
2022-12-28T14:24:54.000Z,96695
2022-12-28T14:29:54.000Z,96684
2022-12-28T14:34:54.000Z,96675
2022-12-28T14:39:54.000Z,96682
2022-12-28T14:44:54.000Z,96672
2022-12-28T14:49:54.000Z,96676
2022-12-28T14:54:54.000Z,96666
2022-12-28T14:59:55.000Z,96660
2022-12-28T15:04:55.000Z,96650
2022-12-28T15:09:55.000Z,96646
2022-12-28T15:14:55.000Z,96639
2022-12-28T15:19:55.000Z,96639
2022-12-28T15:24:55.000Z,96639
2022-12-28T15:29:55.000Z,96629
2022-12-28T15:34:55.000Z,96639
2022-12-28T15:39:55.000Z,96626
2022-12-28T15:44:55.000Z,96629
2022-12-28T15:49:55.000Z,96619
2022-12-28T15:54:55.000Z,96615
2022-12-28T15:59:55.000Z,96609
2022-12-28T16:04:55.000Z,96611
2022-12-28T16:09:55.000Z,96608
2022-12-28T16:14:55.000Z,96608
2022-12-28T16:19:55.000Z,96597
2022-12-28T16:24:55.000Z,96601
2022-12-28T16:29:55.000Z,96599
2022-12-28T16:34:55.000Z,96596
2022-12-28T16:39:55.000Z,96590
2022-12-28T16:44:55.000Z,96609
2022-12-28T16:49:55.000Z,96594
2022-12-28T16:54:55.000Z,96595
2022-12-28T16:59:55.000Z,96601
2022-12-28T17:04:55.000Z,96595
2022-12-28T17:09:55.000Z,96594
2022-12-28T17:14:55.000Z,96591
2022-12-28T17:19:55.000Z,96579
2022-12-28T17:24:55.000Z,96588
2022-12-28T17:29:55.000Z,96590
2022-12-28T17:34:55.000Z,96589
2022-12-28T17:39:55.000Z,96593
2022-12-28T17:44:55.000Z,96590
2022-12-28T17:49:55.000Z,96574
2022-12-28T17:54:55.000Z,96566
2022-12-28T17:59:55.000Z,96571
2022-12-28T18:04:55.000Z,96582
2022-12-28T18:09:55.000Z,96592
2022-12-28T18:14:55.000Z,96585
2022-12-28T18:19:55.000Z,96584
2022-12-28T18:24:55.000Z,96562
2022-12-28T18:29:55.000Z,96566
2022-12-28T18:34:55.000Z,96558
2022-12-28T18:39:55.000Z,96554
2022-12-28T18:44:55.000Z,96542
2022-12-28T18:49:55.000Z,96542
2022-12-28T18:54:55.000Z,96537
2022-12-28T18:59:55.000Z,96527
2022-12-28T19:04:55.000Z,96528
2022-12-28T19:09:55.000Z,96508
2022-12-28T19:14:55.000Z,96508
2022-12-28T19:19:55.000Z,96506
2022-12-28T19:24:55.000Z,96515
2022-12-28T19:29:55.000Z,96513
2022-12-28T19:34:55.000Z,96514
2022-12-28T19:39:55.000Z,96498
2022-12-28T19:44:55.000Z,96499
2022-12-28T19:49:55.000Z,96494
2022-12-28T19:54:55.000Z,96498
2022-12-28T19:59:55.000Z,96484
2022-12-28T20:04:55.000Z,96485
2022-12-28T20:09:55.000Z,96490
2022-12-28T20:14:55.000Z,96474
2022-12-28T20:19:55.000Z,96468
2022-12-28T20:24:55.000Z,96478
2022-12-28T20:29:55.000Z,96474
2022-12-28T20:34:55.000Z,96475
2022-12-28T20:39:55.000Z,96466
2022-12-28T20:44:55.000Z,96481
2022-12-28T20:49:55.000Z,96472
2022-12-28T20:54:55.000Z,96476
2022-12-28T20:59:55.000Z,96474
2022-12-28T21:04:55.000Z,96462
2022-12-28T21:09:55.000Z,96470
2022-12-28T21:14:55.000Z,96475
2022-12-28T21:19:55.000Z,96472
2022-12-28T21:24:55.000Z,96469
2022-12-28T21:29:55.000Z,96466
2022-12-28T21:34:55.000Z,96464
2022-12-28T21:39:55.000Z,96460
2022-12-28T21:44:55.000Z,96466
2022-12-28T21:49:55.000Z,96468
2022-12-28T21:54:55.000Z,96459
2022-12-28T21:59:55.000Z,96460
2022-12-28T22:04:55.000Z,96457
2022-12-28T22:09:55.000Z,96456
2022-12-28T22:14:55.000Z,96465
2022-12-28T22:19:55.000Z,96464
2022-12-28T22:24:55.000Z,96452
2022-12-28T22:29:55.000Z,96454
2022-12-28T22:34:55.000Z,96453
2022-12-28T22:39:55.000Z,96439
2022-12-28T22:44:55.000Z,96441
2022-12-28T22:49:55.000Z,96436
2022-12-28T22:54:55.000Z,96421
2022-12-28T22:59:55.000Z,96425
2022-12-28T23:04:55.000Z,96432
2022-12-28T23:09:55.000Z,96406
2022-12-28T23:14:55.000Z,96408
2022-12-28T23:19:55.000Z,96400
2022-12-28T23:24:55.000Z,96406
2022-12-28T23:29:55.000Z,96401
2022-12-28T23:34:55.000Z,96406
2022-12-28T23:39:55.000Z,96411
2022-12-28T23:44:55.000Z,96404
2022-12-28T23:49:55.000Z,96402
2022-12-28T23:54:55.000Z,96402
2022-12-28T23:59:55.000Z,96401
